Time;durP1;ratioP1;P1;durP2;ratioP2;P2;SDS_P1;SDS_P2;PMS_P1;PMS_P2;Temp;Humidity;BMP_temperature;BMP_pressure;BME280_temperature;BME280_humidity;BME280_pressure;Samples;Min_cycle;Max_cycle;Signal;HPM_P1;HPM_P2
2023/05/28 00:00:00;;;;;;;6.00;4.43;;;22.30;88.30;;;;;;5054781;28;20454;-62
2023/05/28 00:02:27;;;;;;;5.13;3.53;;;22.50;88.50;;;;;;5051244;28;20551;-61
2023/05/28 00:04:54;;;;;;;7.50;3.50;;;22.30;88.40;;;;;;5045737;28;20462;-61
2023/05/28 00:07:21;;;;;;;9.37;4.10;;;22.40;88.90;;;;;;5046431;28;21045;-61
2023/05/28 00:09:48;;;;;;;5.10;4.13;;;22.30;88.90;;;;;;5046976;28;20969;-61
2023/05/28 00:12:16;;;;;;;8.70;4.43;;;22.20;88.90;;;;;;5041503;28;20470;-62
2023/05/28 00:14:43;;;;;;;7.53;4.07;;;22.30;89.20;;;;;;5048944;28;20849;-61
2023/05/28 00:17:10;;;;;;;6.33;4.07;;;22.30;90.00;;;;;;5049329;28;20453;-61
2023/05/28 00:19:36;;;;;;;4.63;3.63;;;22.20;88.90;;;;;;5048103;28;20477;-62
2023/05/28 00:22:03;;;;;;;10.23;4.53;;;22.30;89.10;;;;;;5041656;28;21013;-61
2023/05/28 00:24:30;;;;;;;7.03;3.80;;;22.30;89.30;;;;;;5052973;28;20460;-61
2023/05/28 00:26:56;;;;;;;6.23;3.37;;;22.20;89.00;;;;;;5050501;28;20461;-62
2023/05/28 00:29:26;;;;;;;5.90;4.13;;;22.20;89.50;;;;;;5040003;28;20470;-62
2023/05/28 00:31:55;;;;;;;5.47;4.00;;;22.20;89.00;;;;;;5043444;28;20876;-62
2023/05/28 00:34:21;;;;;;;5.73;3.57;;;22.20;88.90;;;;;;5041281;28;20497;-61
2023/05/28 00:36:48;;;;;;;5.00;3.50;;;22.30;89.00;;;;;;5048756;28;20441;-62
2023/05/28 00:39:15;;;;;;;5.50;3.57;;;22.20;89.20;;;;;;5047240;28;20872;-62
2023/05/28 00:41:42;;;;;;;7.07;3.83;;;22.20;89.10;;;;;;5047530;28;20532;-62
2023/05/28 00:44:09;;;;;;;4.37;3.53;;;22.20;89.20;;;;;;5051819;28;20481;-60
2023/05/28 00:46:38;;;;;;;4.50;3.60;;;22.20;89.30;;;;;;5045110;28;20545;-61
2023/05/28 00:49:05;;;;;;;7.47;3.87;;;22.20;89.40;;;;;;5044364;28;20458;-62
2023/05/28 00:51:32;;;;;;;5.43;3.30;;;22.30;89.50;;;;;;5048213;28;20464;-61
2023/05/28 00:53:59;;;;;;;6.17;4.30;;;22.10;89.20;;;;;;5048193;28;20454;-62
2023/05/28 00:56:26;;;;;;;6.40;4.03;;;22.10;88.90;;;;;;5050246;28;20462;-61
2023/05/28 00:58:55;;;;;;;4.10;3.43;;;22.30;89.60;;;;;;5051150;28;20500;-62
2023/05/28 01:01:24;;;;;;;4.23;2.87;;;22.10;89.00;;;;;;5046765;28;20477;-61
2023/05/28 01:03:52;;;;;;;4.70;3.47;;;22.20;89.10;;;;;;5050595;28;20462;-61
2023/05/28 01:06:20;;;;;;;5.60;4.23;;;22.10;88.70;;;;;;5048263;28;20458;-61
2023/05/28 01:08:48;;;;;;;3.30;2.67;;;22.10;89.00;;;;;;5046090;28;20458;-62
2023/05/28 01:11:17;;;;;;;4.47;3.72;;;22.10;89.50;;;;;;5046065;28;20458;-61
2023/05/28 01:13:45;;;;;;;4.30;3.30;;;22.10;89.30;;;;;;5044563;28;20196;-62
2023/05/28 01:16:12;;;;;;;5.13;3.60;;;22.00;89.20;;;;;;5040376;28;20797;-61
2023/05/28 01:18:40;;;;;;;5.50;3.57;;;22.10;88.80;;;;;;5044011;28;21008;-61
2023/05/28 01:21:10;;;;;;;4.25;3.47;;;22.10;88.70;;;;;;5046938;28;20480;-61
2023/05/28 01:23:42;;;;;;;7.00;3.03;;;22.00;89.10;;;;;;5059370;28;20210;-61
2023/05/28 01:26:09;;;;;;;3.97;3.20;;;22.00;89.40;;;;;;5045802;28;20597;-61
2023/05/28 01:28:36;;;;;;;5.25;3.80;;;22.10;89.20;;;;;;5050598;28;20799;-61
2023/05/28 01:31:03;;;;;;;4.63;2.80;;;22.00;89.00;;;;;;5038948;28;20549;-62
2023/05/28 01:33:30;;;;;;;4.55;3.08;;;22.10;89.30;;;;;;5037090;28;20562;-61
2023/05/28 01:35:59;;;;;;;3.77;3.40;;;22.00;89.00;;;;;;5043536;28;20207;-62
2023/05/28 01:38:27;;;;;;;4.53;3.00;;;22.10;89.20;;;;;;5047274;28;20465;-61
2023/05/28 01:40:56;;;;;;;4.23;2.63;;;21.90;89.20;;;;;;5046463;28;20462;-62
2023/05/28 01:43:23;;;;;;;6.07;3.40;;;22.00;89.40;;;;;;5047005;28;20441;-61
2023/05/28 01:45:50;;;;;;;5.10;3.13;;;22.00;89.00;;;;;;5041659;28;20465;-62
2023/05/28 01:48:18;;;;;;;4.50;3.53;;;22.00;89.60;;;;;;5048711;28;20450;-62
2023/05/28 01:50:45;;;;;;;5.80;3.57;;;22.00;89.20;;;;;;5050747;28;20470;-62
2023/05/28 01:53:12;;;;;;;3.93;2.87;;;21.90;89.50;;;;;;5046972;28;20462;-62
2023/05/28 01:55:39;;;;;;;4.00;3.27;;;22.10;90.00;;;;;;5047831;28;20465;-62
2023/05/28 01:58:08;;;;;;;9.83;3.70;;;21.90;89.20;;;;;;5049917;28;20458;-61
2023/05/28 02:00:40;;;;;;;3.63;3.00;;;22.00;89.80;;;;;;5044852;28;20987;-61
2023/05/28 02:03:07;;;;;;;5.43;3.27;;;21.90;89.40;;;;;;5043915;28;20477;-62
2023/05/28 02:05:34;;;;;;;3.67;2.97;;;21.90;89.40;;;;;;5042676;28;21057;-62
2023/05/28 02:08:00;;;;;;;4.43;3.60;;;21.90;89.60;;;;;;5036440;28;20471;-61
2023/05/28 02:10:27;;;;;;;4.82;2.90;;;21.90;89.40;;;;;;5035514;28;20461;-61
2023/05/28 02:12:54;;;;;;;4.73;3.53;;;21.90;89.00;;;;;;5045532;28;20195;-62
2023/05/28 02:15:22;;;;;;;3.80;3.40;;;21.80;89.30;;;;;;5045449;28;20463;-61
2023/05/28 02:17:49;;;;;;;4.03;3.17;;;21.80;89.00;;;;;;5046786;28;20820;-61
2023/05/28 02:20:16;;;;;;;4.17;3.27;;;21.90;89.30;;;;;;5047394;28;20454;-62
2023/05/28 02:22:42;;;;;;;5.68;3.75;;;21.80;89.20;;;;;;5046397;28;20477;-61
2023/05/28 02:25:09;;;;;;;4.90;2.70;;;22.00;89.70;;;;;;5046869;28;20713;-61
2023/05/28 02:27:36;;;;;;;4.07;3.35;;;21.90;89.40;;;;;;5044588;28;20455;-62
2023/05/28 02:30:03;;;;;;;3.43;2.97;;;21.80;89.20;;;;;;5037797;28;20270;-61
2023/05/28 02:32:32;;;;;;;4.90;3.60;;;21.80;89.00;;;;;;5042197;28;20481;-62
2023/05/28 02:34:59;;;;;;;3.97;3.07;;;21.80;89.10;;;;;;5042729;28;20599;-61
2023/05/28 02:37:26;;;;;;;4.20;3.50;;;21.80;89.00;;;;;;5039600;28;20454;-61
2023/05/28 02:39:53;;;;;;;6.87;2.70;;;21.90;89.00;;;;;;5052783;28;20452;-61
2023/05/28 02:42:19;;;;;;;3.25;2.83;;;21.90;89.30;;;;;;5048360;28;20473;-62
2023/05/28 02:44:46;;;;;;;3.70;2.80;;;21.80;89.30;;;;;;5047560;28;20207;-62
2023/05/28 02:47:13;;;;;;;2.50;2.30;;;21.70;89.10;;;;;;5042758;28;20984;-62
2023/05/28 02:49:41;;;;;;;3.67;2.97;;;21.80;89.20;;;;;;5046454;28;20548;-62
2023/05/28 02:52:07;;;;;;;3.33;3.00;;;21.80;89.10;;;;;;5048815;28;20196;-62
2023/05/28 02:54:34;;;;;;;4.47;2.93;;;21.70;89.20;;;;;;5042918;28;20862;-61
2023/05/28 02:57:01;;;;;;;3.80;2.60;;;21.70;88.90;;;;;;5050183;28;20453;-61
2023/05/28 02:59:28;;;;;;;4.93;2.90;;;21.70;89.00;;;;;;5044803;28;21331;-61
2023/05/28 03:01:55;;;;;;;3.30;3.00;;;21.80;89.30;;;;;;5045588;28;20489;-62
2023/05/28 03:04:23;;;;;;;3.78;3.00;;;21.70;90.00;;;;;;5048758;28;20458;-62
2023/05/28 03:06:51;;;;;;;3.60;3.17;;;21.70;89.30;;;;;;5047979;28;20203;-62
2023/05/28 03:09:17;;;;;;;5.47;3.00;;;21.70;89.30;;;;;;5044275;28;20458;-61
2023/05/28 03:11:44;;;;;;;3.40;2.90;;;21.70;89.40;;;;;;5045966;28;20210;-62
2023/05/28 03:14:11;;;;;;;3.40;2.90;;;21.70;88.90;;;;;;5047259;28;20195;-62
2023/05/28 03:16:38;;;;;;;3.90;3.07;;;21.80;89.50;;;;;;5045754;28;20932;-61
2023/05/28 03:19:04;;;;;;;5.20;3.10;;;21.70;88.80;;;;;;5039887;28;20481;-62
2023/05/28 03:21:31;;;;;;;3.40;2.87;;;21.80;89.20;;;;;;5041566;28;20437;-62
2023/05/28 03:23:59;;;;;;;4.28;3.00;;;21.70;89.40;;;;;;5046890;28;20502;-61
2023/05/28 03:26:26;;;;;;;3.93;2.83;;;21.70;89.30;;;;;;5045159;28;20201;-62
2023/05/28 03:28:52;;;;;;;3.87;2.77;;;21.70;89.20;;;;;;5051906;28;20532;-61
2023/05/28 03:31:20;;;;;;;3.83;3.50;;;21.70;89.30;;;;;;5042654;28;20802;-61
2023/05/28 03:33:47;;;;;;;2.95;2.65;;;21.70;89.30;;;;;;5044696;28;20469;-62
2023/05/28 03:36:14;;;;;;;3.70;3.33;;;21.70;89.50;;;;;;5045234;28;20200;-61
2023/05/28 03:38:41;;;;;;;4.60;3.25;;;21.60;90.00;;;;;;5042799;28;20191;-62
2023/05/28 03:41:09;;;;;;;4.00;3.08;;;21.80;89.60;;;;;;5043512;28;20191;-61
2023/05/28 03:43:35;;;;;;;2.75;2.40;;;21.60;89.00;;;;;;5045671;28;20219;-62
2023/05/28 03:46:02;;;;;;;3.95;3.05;;;21.70;89.30;;;;;;5044781;28;20249;-61
2023/05/28 03:48:29;;;;;;;3.63;2.90;;;21.60;89.40;;;;;;5040286;28;20216;-61
2023/05/28 03:50:55;;;;;;;3.30;3.00;;;21.60;89.60;;;;;;5045802;28;20195;-62
2023/05/28 03:53:22;;;;;;;4.82;3.28;;;21.70;89.90;;;;;;5039949;28;20459;-62
2023/05/28 03:55:51;;;;;;;3.63;2.97;;;21.60;89.50;;;;;;5051939;28;20195;-62
2023/05/28 03:58:19;;;;;;;3.07;2.50;;;21.70;90.00;;;;;;5054033;28;20269;-62
2023/05/28 04:00:45;;;;;;;3.33;2.95;;;21.60;89.60;;;;;;5041965;28;20469;-61
2023/05/28 04:03:12;;;;;;;3.25;2.40;;;21.60;89.60;;;;;;5052899;28;20238;-61
2023/05/28 04:05:39;;;;;;;3.10;2.60;;;21.60;89.50;;;;;;5054287;28;20190;-62
2023/05/28 04:08:05;;;;;;;2.60;1.92;;;21.60;90.00;;;;;;5045658;28;20192;-62
2023/05/28 04:10:32;;;;;;;2.63;2.22;;;21.60;89.80;;;;;;5043995;28;20904;-60
2023/05/28 04:12:59;;;;;;;3.63;3.15;;;21.70;90.00;;;;;;5037633;28;20262;-62
2023/05/28 04:15:27;;;;;;;3.22;2.50;;;21.60;90.10;;;;;;5039594;28;20198;-62
2023/05/28 04:17:54;;;;;;;6.70;2.75;;;21.60;90.00;;;;;;5044785;28;20202;-61
2023/05/28 04:20:21;;;;;;;4.07;2.85;;;21.60;90.00;;;;;;5042196;28;20238;-62
2023/05/28 04:22:48;;;;;;;3.08;2.05;;;21.60;90.00;;;;;;5043151;28;20868;-61
2023/05/28 04:25:14;;;;;;;5.60;2.53;;;21.50;89.90;;;;;;5047752;28;20606;-61
2023/05/28 04:27:41;;;;;;;2.28;2.08;;;21.50;89.80;;;;;;5048929;28;20195;-62
2023/05/28 04:30:09;;;;;;;4.30;3.50;;;21.50;89.60;;;;;;5047926;28;20311;-61
2023/05/28 04:32:39;;;;;;;2.88;2.10;;;21.50;89.50;;;;;;5049941;28;21431;-61
2023/05/28 04:35:06;;;;;;;3.05;2.47;;;21.50;90.00;;;;;;5049363;28;20584;-62
2023/05/28 04:37:33;;;;;;;2.55;2.35;;;21.60;90.10;;;;;;5049807;28;20191;-62
2023/05/28 04:40:00;;;;;;;3.17;2.75;;;21.50;90.10;;;;;;5055379;28;20215;-62
2023/05/28 04:42:27;;;;;;;3.60;3.05;;;21.50;89.70;;;;;;5049850;28;20215;-62
2023/05/28 04:44:54;;;;;;;3.30;3.00;;;21.50;89.90;;;;;;5050006;28;20191;-62
2023/05/28 04:47:22;;;;;;;4.07;2.78;;;21.50;89.60;;;;;;5045321;28;20195;-61
2023/05/28 04:49:50;;;;;;;3.33;3.00;;;21.50;89.50;;;;;;5046897;28;20200;-62
2023/05/28 04:52:17;;;;;;;3.60;3.10;;;21.60;89.90;;;;;;5043014;28;20227;-62
2023/05/28 04:54:45;;;;;;;4.20;2.90;;;21.40;90.00;;;;;;5051837;28;20199;-62
2023/05/28 04:57:12;;;;;;;3.13;2.70;;;21.50;89.90;;;;;;5045569;28;20207;-61
2023/05/28 04:59:39;;;;;;;3.10;2.60;;;21.50;90.10;;;;;;5042738;28;20846;-61
2023/05/28 05:02:06;;;;;;;4.03;2.60;;;21.40;89.60;;;;;;5045030;28;20295;-62
2023/05/28 05:04:32;;;;;;;2.60;2.40;;;21.50;90.10;;;;;;5049115;28;20254;-62
2023/05/28 05:07:01;;;;;;;3.35;2.72;;;21.40;89.90;;;;;;5044772;28;20720;-62
2023/05/28 05:09:30;;;;;;;3.28;2.70;;;21.50;89.90;;;;;;5051106;28;20192;-62
2023/05/28 05:11:57;;;;;;;3.40;2.45;;;21.40;90.00;;;;;;5046792;28;20199;-61
2023/05/28 05:14:23;;;;;;;2.47;2.28;;;21.50;90.00;;;;;;5048984;28;20282;-62
2023/05/28 05:16:50;;;;;;;2.35;2.15;;;21.40;90.00;;;;;;5043675;28;20524;-61
2023/05/28 05:19:17;;;;;;;4.13;3.13;;;21.60;90.00;;;;;;5046289;28;20206;-61
2023/05/28 05:21:43;;;;;;;7.88;2.88;;;21.40;90.10;;;;;;5046702;28;20187;-62
2023/05/28 05:24:11;;;;;;;3.92;3.03;;;21.50;90.10;;;;;;5036950;28;20298;-62
2023/05/28 05:26:38;;;;;;;3.45;3.03;;;21.40;90.10;;;;;;5048712;28;20202;-61
2023/05/28 05:29:05;;;;;;;3.22;2.72;;;21.40;89.80;;;;;;5049636;28;20203;-61
2023/05/28 05:31:31;;;;;;;3.47;2.75;;;21.50;90.20;;;;;;5048131;28;20749;-62
2023/05/28 05:33:58;;;;;;;3.23;2.93;;;21.60;90.30;;;;;;5048613;28;20207;-62
2023/05/28 05:36:26;;;;;;;2.70;2.28;;;21.50;89.90;;;;;;5048628;28;20442;-62
2023/05/28 05:38:52;;;;;;;2.83;2.25;;;21.50;90.30;;;;;;5046608;28;20203;-62
2023/05/28 05:41:21;;;;;;;2.80;2.50;;;21.50;90.30;;;;;;5044215;28;20593;-60
2023/05/28 05:43:47;;;;;;;3.33;2.83;;;21.50;90.40;;;;;;5041582;28;20223;-61
2023/05/28 05:46:14;;;;;;;3.85;2.80;;;21.60;90.20;;;;;;5048144;28;20484;-62
2023/05/28 05:48:41;;;;;;;3.22;2.83;;;21.50;90.50;;;;;;5044310;28;20190;-61
2023/05/28 05:51:08;;;;;;;2.72;2.50;;;21.60;90.30;;;;;;5049532;28;20188;-62
2023/05/28 05:53:40;;;;;;;2.15;1.95;;;21.60;90.40;;;;;;5045750;28;20222;-62
2023/05/28 05:56:07;;;;;;;3.67;2.60;;;21.60;90.50;;;;;;5053681;28;20383;-61
2023/05/28 05:58:35;;;;;;;3.65;2.53;;;21.60;90.60;;;;;;5042691;28;20466;-61
2023/05/28 06:01:02;;;;;;;3.63;2.87;;;21.60;90.40;;;;;;5034305;28;20196;-61
2023/05/28 06:03:29;;;;;;;2.33;2.13;;;21.60;91.00;;;;;;5041705;28;20989;-59
2023/05/28 06:05:55;;;;;;;4.00;2.05;;;21.70;91.10;;;;;;5056275;28;20869;-61
2023/05/28 06:08:22;;;;;;;3.45;2.00;;;21.60;91.70;;;;;;5047683;28;20286;-62
2023/05/28 06:10:49;;;;;;;3.63;2.33;;;21.80;92.20;;;;;;5045437;28;20598;-61
2023/05/28 06:13:16;;;;;;;2.97;2.20;;;21.70;92.60;;;;;;5045626;28;20207;-62
2023/05/28 06:15:44;;;;;;;2.70;2.50;;;21.70;92.10;;;;;;5043081;28;20537;-62
2023/05/28 06:18:11;;;;;;;3.73;2.23;;;21.70;91.30;;;;;;5048872;28;20458;-60
2023/05/28 06:20:39;;;;;;;1.93;1.83;;;21.70;90.90;;;;;;5055528;28;20461;-62
2023/05/28 06:23:06;;;;;;;3.30;2.83;;;21.70;90.30;;;;;;5044111;28;20876;-61
2023/05/28 06:25:35;;;;;;;2.45;2.25;;;21.70;90.10;;;;;;5041172;28;20611;-61
2023/05/28 06:28:01;;;;;;;2.17;1.98;;;21.70;90.10;;;;;;5043105;28;20246;-61
2023/05/28 06:30:29;;;;;;;2.43;2.23;;;21.70;89.70;;;;;;5043435;28;20199;-62
2023/05/28 06:32:57;;;;;;;2.17;1.63;;;21.80;89.70;;;;;;5044588;28;20462;-62
2023/05/28 06:35:24;;;;;;;5.47;2.23;;;21.80;89.30;;;;;;5044857;28;20667;-61
2023/05/28 06:37:50;;;;;;;2.30;2.03;;;21.80;89.50;;;;;;5042075;28;20463;-62
2023/05/28 06:40:17;;;;;;;2.97;2.30;;;21.80;89.30;;;;;;5054377;28;20479;-62
2023/05/28 06:42:44;;;;;;;1.93;1.83;;;21.80;89.30;;;;;;5049225;28;20486;-61
2023/05/28 06:45:11;;;;;;;2.33;1.93;;;21.80;89.40;;;;;;5053817;28;20461;-61
2023/05/28 06:47:38;;;;;;;2.30;2.10;;;21.90;89.30;;;;;;5049166;28;20459;-61
2023/05/28 06:50:07;;;;;;;2.10;1.90;;;21.80;89.10;;;;;;5046770;28;20469;-62
2023/05/28 06:52:33;;;;;;;2.05;1.80;;;21.80;89.40;;;;;;5043765;28;20463;-61
2023/05/28 06:55:00;;;;;;;2.40;2.03;;;21.80;89.30;;;;;;5048079;28;20199;-61
2023/05/28 06:57:27;;;;;;;3.07;2.20;;;21.80;89.60;;;;;;5045214;28;20779;-57
2023/05/28 06:59:54;;;;;;;3.95;2.10;;;22.00;90.00;;;;;;5041179;28;20900;-59
2023/05/28 07:02:20;;;;;;;4.97;2.70;;;21.90;90.60;;;;;;5042370;28;20214;-60
2023/05/28 07:04:47;;;;;;;5.80;2.30;;;21.80;90.30;;;;;;5051664;28;20474;-60
2023/05/28 07:07:16;;;;;;;3.00;2.70;;;21.90;90.30;;;;;;5046580;28;20488;-55
2023/05/28 07:09:43;;;;;;;3.23;2.47;;;21.80;90.40;;;;;;5042058;28;20465;-63
2023/05/28 07:12:09;;;;;;;6.83;2.90;;;21.90;90.50;;;;;;5048518;28;20977;-64
2023/05/28 07:14:37;;;;;;;2.73;2.00;;;22.00;90.60;;;;;;5047298;28;20991;-63
2023/05/28 07:17:03;;;;;;;3.33;2.30;;;21.90;90.50;;;;;;5045737;28;20465;-63
2023/05/28 07:19:31;;;;;;;2.70;2.50;;;21.80;90.50;;;;;;5045793;28;20462;-63
2023/05/28 07:21:57;;;;;;;3.93;2.57;;;22.00;90.80;;;;;;5046203;28;21288;-63
2023/05/28 07:24:25;;;;;;;2.77;2.30;;;21.90;90.70;;;;;;5040584;28;20551;-63
2023/05/28 07:26:52;;;;;;;4.07;2.50;;;21.90;90.80;;;;;;5041195;28;20465;-63
2023/05/28 07:29:19;;;;;;;3.60;2.70;;;21.90;91.00;;;;;;5046933;28;20458;-62
2023/05/28 07:31:46;;;;;;;4.67;2.43;;;22.00;91.10;;;;;;5045504;28;20552;-63
2023/05/28 07:34:12;;;;;;;2.53;2.33;;;22.00;91.10;;;;;;5043774;28;20456;-59
2023/05/28 07:36:39;;;;;;;3.23;2.70;;;22.10;91.30;;;;;;5049554;28;20861;-61
2023/05/28 07:39:06;;;;;;;2.30;2.10;;;22.10;91.10;;;;;;5046134;28;20454;-57
2023/05/28 07:41:35;;;;;;;5.20;2.57;;;22.10;91.20;;;;;;5047375;28;20453;-59
2023/05/28 07:44:01;;;;;;;7.00;2.50;;;22.20;91.20;;;;;;5044754;28;20887;-59
2023/05/28 07:46:28;;;;;;;3.57;2.03;;;22.20;91.20;;;;;;5046837;28;20507;-57
2023/05/28 07:48:55;;;;;;;3.40;2.37;;;22.20;91.10;;;;;;5047160;28;20445;-60
2023/05/28 07:51:21;;;;;;;6.43;2.73;;;22.20;91.10;;;;;;5043113;28;20470;-54
2023/05/28 07:53:48;;;;;;;3.20;2.90;;;22.20;91.20;;;;;;5039298;28;20523;-56
2023/05/28 07:56:15;;;;;;;7.43;2.77;;;22.30;91.10;;;;;;5049684;28;20442;-55
2023/05/28 07:58:45;;;;;;;5.73;3.17;;;22.30;90.90;;;;;;5044653;28;20459;-55
2023/05/28 08:01:11;;;;;;;2.63;2.40;;;22.30;90.90;;;;;;5041507;28;20508;-60
2023/05/28 08:03:38;;;;;;;3.80;2.47;;;22.30;91.00;;;;;;5041843;28;20490;-57
2023/05/28 08:06:06;;;;;;;4.13;2.50;;;22.40;91.10;;;;;;5052439;28;20518;-52
2023/05/28 08:08:33;;;;;;;3.60;2.60;;;22.50;91.40;;;;;;5049586;28;20478;-49
2023/05/28 08:10:59;;;;;;;4.90;2.47;;;22.40;91.60;;;;;;5054255;28;20434;-55
2023/05/28 08:13:26;;;;;;;2.10;1.90;;;22.50;91.80;;;;;;5042847;28;20491;-56
2023/05/28 08:15:55;;;;;;;4.73;2.83;;;22.50;92.10;;;;;;5041015;28;20539;-59
2023/05/28 08:18:21;;;;;;;3.10;1.87;;;22.50;91.90;;;;;;5040752;28;20505;-59
2023/05/28 08:20:51;;;;;;;2.93;2.70;;;22.60;91.90;;;;;;5047464;28;20777;-55
2023/05/28 08:23:17;;;;;;;2.80;2.43;;;22.60;91.90;;;;;;5041568;28;20530;-52
2023/05/28 08:25:44;;;;;;;4.27;2.67;;;22.60;91.90;;;;;;5037119;28;20466;-51
2023/05/28 08:28:11;;;;;;;3.87;2.33;;;22.70;91.90;;;;;;5038054;28;20467;-52
2023/05/28 08:30:38;;;;;;;4.60;2.00;;;22.60;92.10;;;;;;5048610;28;21025;-50
2023/05/28 08:33:06;;;;;;;5.30;2.83;;;22.70;91.90;;;;;;5039703;28;20458;-51
2023/05/28 08:35:32;;;;;;;6.70;2.77;;;22.60;91.80;;;;;;5040808;28;20461;-56
2023/05/28 08:38:00;;;;;;;9.40;3.00;;;22.70;91.80;;;;;;5038018;28;20454;-53
2023/05/28 08:40:28;;;;;;;3.87;2.40;;;22.70;91.80;;;;;;5046384;28;20464;-55
2023/05/28 08:42:55;;;;;;;5.50;3.27;;;22.70;91.70;;;;;;5047022;28;20465;-59
2023/05/28 08:45:21;;;;;;;7.07;3.83;;;22.70;91.60;;;;;;5046617;28;20484;-56
2023/05/28 08:47:51;;;;;;;4.70;3.17;;;22.70;91.50;;;;;;5048623;28;20462;-54
2023/05/28 08:50:20;;;;;;;3.73;2.70;;;22.70;91.50;;;;;;5046615;28;20545;-51
2023/05/28 08:52:48;;;;;;;4.37;2.60;;;22.80;91.50;;;;;;5050329;28;20466;-50
2023/05/28 08:55:15;;;;;;;3.83;2.67;;;22.80;91.60;;;;;;5052702;28;20450;-47
2023/05/28 08:57:43;;;;;;;6.50;2.57;;;22.80;91.50;;;;;;5054311;28;20478;-48
2023/05/28 09:00:11;;;;;;;2.33;2.07;;;22.90;91.90;;;;;;5039223;28;20461;-48
2023/05/28 09:02:39;;;;;;;8.80;2.63;;;22.80;92.40;;;;;;5040863;28;20455;-53
2023/05/28 09:05:07;;;;;;;4.30;2.67;;;22.90;92.60;;;;;;5046602;28;20477;-50
2023/05/28 09:07:35;;;;;;;3.13;2.27;;;22.90;93.00;;;;;;5044957;28;20958;-51
2023/05/28 09:10:03;;;;;;;2.90;2.53;;;23.00;93.20;;;;;;5045208;28;20461;-55
2023/05/28 09:12:30;;;;;;;2.77;2.10;;;22.90;93.40;;;;;;5048106;28;20466;-51
2023/05/28 09:14:56;;;;;;;2.13;1.97;;;23.00;93.40;;;;;;5043513;28;20465;-51
2023/05/28 09:17:34;;;;;;;6.43;3.80;;;22.90;92.80;;;;;;5043645;28;20988;-47
2023/05/28 09:20:01;;;;;;;3.43;2.50;;;23.10;92.20;;;;;;5045344;28;20552;-50
2023/05/28 09:22:28;;;;;;;3.07;2.10;;;22.90;91.60;;;;;;5047325;28;20861;-49
2023/05/28 09:24:56;;;;;;;3.53;2.30;;;23.00;91.40;;;;;;5048315;28;20485;-52
2023/05/28 09:27:23;;;;;;;3.90;2.73;;;23.00;91.20;;;;;;5046567;28;20479;-52
2023/05/28 09:29:50;;;;;;;2.90;2.60;;;22.90;90.90;;;;;;5046034;28;20461;-55
2023/05/28 09:32:20;;;;;;;4.23;2.67;;;23.00;91.10;;;;;;5044204;28;20450;-52
2023/05/28 09:34:49;;;;;;;4.00;3.20;;;23.00;91.10;;;;;;5039783;28;20486;-53
2023/05/28 09:37:17;;;;;;;2.80;2.10;;;22.90;91.10;;;;;;5043928;28;20550;-53
2023/05/28 09:39:44;;;;;;;3.10;2.10;;;22.90;91.00;;;;;;5036491;28;21068;-54
2023/05/28 09:42:13;;;;;;;3.67;2.47;;;23.00;91.20;;;;;;5037450;28;20461;-51
2023/05/28 09:44:41;;;;;;;6.50;2.20;;;23.10;91.20;;;;;;5046030;28;20517;-51
2023/05/28 09:47:15;;;;;;;3.37;2.40;;;23.00;91.30;;;;;;5049261;28;20438;-53
2023/05/28 09:49:43;;;;;;;3.87;2.30;;;23.00;91.20;;;;;;5048229;28;20533;-53
2023/05/28 09:52:13;;;;;;;4.27;2.07;;;23.00;91.20;;;;;;5040860;28;20545;-49
2023/05/28 09:54:44;;;;;;;5.00;2.53;;;23.00;91.20;;;;;;5047972;28;20914;-55
2023/05/28 09:57:14;;;;;;;2.60;1.60;;;22.90;91.10;;;;;;5046223;28;20545;-52
2023/05/28 09:59:44;;;;;;;2.90;2.70;;;23.00;91.30;;;;;;5045664;28;20466;-54
2023/05/28 10:02:25;;;;;;;3.43;2.43;;;22.90;91.20;;;;;;5042229;28;20464;-54
2023/05/28 10:04:53;;;;;;;2.47;2.10;;;23.00;91.20;;;;;;5048180;28;20478;-51
2023/05/28 10:07:22;;;;;;;3.90;2.10;;;22.90;91.10;;;;;;5048122;28;20476;-56
2023/05/28 10:09:51;;;;;;;3.20;2.13;;;22.90;91.10;;;;;;5051255;28;20472;-55
2023/05/28 10:12:23;;;;;;;4.00;2.13;;;22.90;91.10;;;;;;5047991;28;20457;-53
2023/05/28 10:14:51;;;;;;;3.73;2.27;;;23.00;90.90;;;;;;5045041;28;20462;-53
2023/05/28 10:17:18;;;;;;;2.40;2.00;;;22.90;90.80;;;;;;5053000;28;20565;-52
2023/05/28 10:19:46;;;;;;;3.23;2.37;;;22.90;90.70;;;;;;5044575;28;20473;-51
2023/05/28 10:22:13;;;;;;;2.13;1.70;;;22.90;90.70;;;;;;5042871;28;20511;-53
2023/05/28 10:24:40;;;;;;;2.20;1.90;;;22.90;90.60;;;;;;5039130;28;20488;-50
2023/05/28 10:27:07;;;;;;;3.20;2.70;;;22.90;90.50;;;;;;5047185;28;20484;-52
2023/05/28 10:29:41;;;;;;;3.27;1.93;;;22.90;90.50;;;;;;5044789;28;20536;-54
2023/05/28 10:32:08;;;;;;;5.33;2.37;;;22.80;90.50;;;;;;5046878;28;20461;-52
2023/05/28 10:34:37;;;;;;;2.37;2.10;;;23.00;90.40;;;;;;5046255;28;20461;-54
2023/05/28 10:37:07;;;;;;;4.90;2.27;;;22.80;90.30;;;;;;5046284;28;20504;-50
2023/05/28 10:39:45;;;;;;;4.43;2.53;;;22.90;90.40;;;;;;5048276;28;20458;-53
2023/05/28 10:42:15;;;;;;;6.37;3.17;;;22.90;90.40;;;;;;5040385;28;20457;-55
2023/05/28 10:45:06;;;;;;;2.33;1.73;;;22.90;90.30;;;;;;5049522;28;21010;-59
2023/05/28 10:47:33;;;;;;;2.20;1.83;;;22.90;90.60;;;;;;5042401;28;20455;-58
2023/05/28 10:50:02;;;;;;;2.50;2.13;;;22.90;91.40;;;;;;5046537;28;20454;-52
2023/05/28 10:52:31;;;;;;;2.23;1.83;;;22.80;91.70;;;;;;5044170;28;20462;-50
2023/05/28 10:54:58;;;;;;;2.53;2.33;;;22.90;92.20;;;;;;5055604;28;20520;-53
2023/05/28 10:57:25;;;;;;;2.17;1.97;;;22.90;92.20;;;;;;5054844;28;20462;-53
2023/05/28 10:59:58;;;;;;;2.83;1.87;;;23.00;92.60;;;;;;5043279;28;20453;-55
2023/05/28 11:02:26;;;;;;;3.47;2.20;;;23.00;92.90;;;;;;5043404;28;20466;-54
2023/05/28 11:04:55;;;;;;;2.60;1.70;;;23.10;92.90;;;;;;5043840;28;21410;-54
2023/05/28 11:07:23;;;;;;;2.50;2.00;;;23.00;92.70;;;;;;5041001;28;20797;-56
2023/05/28 11:09:50;;;;;;;3.40;2.20;;;23.10;92.90;;;;;;5047927;28;20984;-53
2023/05/28 11:12:17;;;;;;;2.30;1.63;;;23.10;93.20;;;;;;5053141;28;21038;-52
2023/05/28 11:14:44;;;;;;;3.70;2.33;;;23.20;92.90;;;;;;5048037;28;20490;-49
2023/05/28 11:17:13;;;;;;;2.70;2.10;;;23.10;92.80;;;;;;5039471;28;20481;-49
2023/05/28 11:19:44;;;;;;;2.33;1.70;;;23.20;92.30;;;;;;5044166;28;20480;-52
2023/05/28 11:22:11;;;;;;;6.53;1.93;;;23.20;92.30;;;;;;5042877;28;20477;-47
2023/05/28 11:24:58;;;;;;;1.80;1.60;;;23.10;92.10;;;;;;5040807;28;20764;-50
2023/05/28 11:27:26;;;;;;;2.63;1.67;;;23.20;91.90;;;;;;5045971;28;20437;-49
2023/05/28 11:29:55;;;;;;;2.13;1.83;;;23.20;92.10;;;;;;5039433;28;20458;-55
2023/05/28 11:32:23;;;;;;;2.80;1.77;;;23.30;92.10;;;;;;5041656;28;20546;-50
2023/05/28 11:34:51;;;;;;;2.30;1.87;;;23.20;91.60;;;;;;5045036;28;20492;-48
2023/05/28 11:37:24;;;;;;;2.70;2.13;;;23.40;91.10;;;;;;5049774;28;20454;-49
2023/05/28 11:39:51;;;;;;;3.17;2.37;;;23.30;90.90;;;;;;5043141;28;20454;-49
2023/05/28 11:42:19;;;;;;;3.80;2.20;;;23.40;90.90;;;;;;5043038;28;20449;-47
2023/05/28 11:44:46;;;;;;;2.40;2.00;;;23.30;90.80;;;;;;5051509;28;20826;-48
2023/05/28 11:47:13;;;;;;;2.63;1.80;;;23.30;90.80;;;;;;5046242;28;20545;-47
2023/05/28 11:49:42;;;;;;;3.27;1.77;;;23.40;90.80;;;;;;5042851;28;20548;-48
2023/05/28 11:52:12;;;;;;;2.50;1.73;;;23.30;90.80;;;;;;5046312;28;20457;-49
2023/05/28 11:54:40;;;;;;;9.60;2.43;;;23.40;90.70;;;;;;5042826;28;20976;-45
2023/05/28 11:57:07;;;;;;;6.90;2.63;;;23.30;89.00;;;;;;5044944;28;21276;-45
2023/05/28 11:59:34;;;;;;;4.63;2.13;;;23.50;88.50;;;;;;5048259;28;20469;-47
2023/05/28 12:02:11;;;;;;;5.53;1.97;;;23.30;88.30;;;;;;5044187;28;21034;-46
2023/05/28 12:04:38;;;;;;;4.73;2.80;;;23.30;87.90;;;;;;5048325;28;20481;-48
2023/05/28 12:07:06;;;;;;;4.30;2.30;;;23.40;88.20;;;;;;5042471;28;20799;-46
2023/05/28 12:09:33;;;;;;;2.30;2.00;;;23.30;87.80;;;;;;5047822;28;20465;-49
2023/05/28 12:12:05;;;;;;;4.43;2.73;;;23.40;87.50;;;;;;5040315;28;20454;-46
2023/05/28 12:14:32;;;;;;;5.67;2.40;;;23.30;87.30;;;;;;5046166;28;20542;-49
2023/05/28 12:17:06;;;;;;;3.37;2.10;;;23.30;87.30;;;;;;5051276;28;20987;-47
2023/05/28 12:19:33;;;;;;;14.77;2.60;;;23.30;87.50;;;;;;5049108;28;20848;-50
2023/05/28 12:22:00;;;;;;;5.10;2.10;;;23.30;87.20;;;;;;5047666;28;20458;-45
2023/05/28 12:24:29;;;;;;;2.83;2.00;;;23.30;87.10;;;;;;5043454;28;20841;-48
2023/05/28 12:26:55;;;;;;;2.83;2.53;;;23.30;87.10;;;;;;5048879;28;20496;-46
2023/05/28 12:29:22;;;;;;;4.10;2.67;;;23.30;86.90;;;;;;5048720;28;20466;-49
2023/05/28 12:31:58;;;;;;;2.47;2.00;;;23.40;87.30;;;;;;5051903;28;20872;-52
2023/05/28 12:34:25;;;;;;;5.00;2.27;;;23.20;86.50;;;;;;5049619;28;20543;-52
2023/05/28 12:36:51;;;;;;;6.03;2.20;;;23.20;86.70;;;;;;5051124;28;20835;-49
2023/05/28 12:39:18;;;;;;;8.37;2.60;;;23.30;86.70;;;;;;5047977;28;20460;-50
2023/05/28 12:41:46;;;;;;;3.83;2.20;;;23.20;86.70;;;;;;5046261;28;20442;-50
2023/05/28 12:44:13;;;;;;;5.70;2.17;;;23.30;86.70;;;;;;5051794;28;20465;-49
2023/05/28 12:46:39;;;;;;;2.23;1.80;;;23.30;86.70;;;;;;5050675;28;20484;-52
2023/05/28 12:49:06;;;;;;;2.30;1.90;;;23.30;86.70;;;;;;5046015;28;20462;-51